createdAt,value
2022-07-28T00:03:01.219Z,3.17
2022-07-28T00:08:04.397Z,3.08
2022-07-28T00:13:07.296Z,2.83
2022-07-28T00:18:10.451Z,3.28
2022-07-28T00:23:12.924Z,2.70
2022-07-28T00:28:15.823Z,2.80
2022-07-28T00:33:19.287Z,3.08
2022-07-28T00:38:21.863Z,3.33
2022-07-28T00:43:25.974Z,3.03
2022-07-28T00:48:28.831Z,3.15
2022-07-28T00:53:31.549Z,4.00
2022-07-28T00:58:36.729Z,3.22
2022-07-28T01:03:45.324Z,3.03
2022-07-28T01:09:16.518Z,3.60
2022-07-28T01:14:33.156Z,3.13
2022-07-28T01:19:51.738Z,3.10
2022-07-28T01:25:20.313Z,2.97
2022-07-28T01:30:23.177Z,2.65
2022-07-28T01:35:34.148Z,3.47
2022-07-28T01:40:37.932Z,2.92
2022-07-28T01:45:41.311Z,2.78
2022-07-28T01:50:45.368Z,2.97
2022-07-28T01:55:48.548Z,2.40
2022-07-28T02:00:52.208Z,2.75
2022-07-28T02:05:56.851Z,2.60
2022-07-28T02:11:18.959Z,2.85
2022-07-28T02:16:23.712Z,3.05
2022-07-28T02:21:28.001Z,3.28
2022-07-28T02:26:38.284Z,2.47
2022-07-28T02:32:27.299Z,3.05
2022-07-28T02:37:36.292Z,2.58
2022-07-28T02:42:41.913Z,2.95
2022-07-28T02:47:51.584Z,2.10
2022-07-28T02:52:57.382Z,2.40
2022-07-28T02:58:00.388Z,3.05
2022-07-28T03:03:05.021Z,2.22
2022-07-28T03:08:07.784Z,2.70
2022-07-28T03:13:10.592Z,3.00
2022-07-28T03:18:13.538Z,2.42
2022-07-28T03:23:16.978Z,2.90
2022-07-28T03:28:21.302Z,2.15
2022-07-28T03:33:24.534Z,2.20
2022-07-28T03:38:43.972Z,2.55
2022-07-28T03:43:47.652Z,2.50
2022-07-28T03:48:50.397Z,2.38
2022-07-28T03:53:52.804Z,2.22
2022-07-28T03:58:55.679Z,2.30
2022-07-28T04:03:58.922Z,2.58
2022-07-28T04:09:01.660Z,2.60
2022-07-28T04:14:04.281Z,2.92
2022-07-28T04:19:06.777Z,2.63
2022-07-28T04:24:11.217Z,2.28
2022-07-28T04:29:13.820Z,2.85
2022-07-28T04:34:26.347Z,2.20
2022-07-28T04:39:29.110Z,2.30
2022-07-28T04:44:31.945Z,2.35
2022-07-28T04:49:35.686Z,2.60
2022-07-28T04:54:39.004Z,2.40
2022-07-28T04:59:41.664Z,2.75
2022-07-28T05:04:45.888Z,3.08
2022-07-28T05:09:48.831Z,2.28
2022-07-28T05:14:51.742Z,2.30
2022-07-28T05:19:54.575Z,2.05
2022-07-28T05:25:00.892Z,1.95
2022-07-28T05:30:05.562Z,2.20
2022-07-28T05:35:09.146Z,3.08
2022-07-28T05:40:14.371Z,2.60
2022-07-28T05:45:17.743Z,2.17
2022-07-28T05:50:25.418Z,2.30
2022-07-28T06:00:33.754Z,2.05
2022-07-28T06:06:14.117Z,2.00
2022-07-28T06:11:11.881Z,2.13
2022-07-28T06:16:23.170Z,2.30
2022-07-28T06:21:28.199Z,2.05
2022-07-28T06:26:31.734Z,1.70
2022-07-28T06:31:35.500Z,2.08
2022-07-28T06:36:42.259Z,2.20
2022-07-28T06:41:45.334Z,2.28
2022-07-28T06:46:50.562Z,2.17
2022-07-28T06:51:53.663Z,2.70
2022-07-28T06:56:57.338Z,2.20
2022-07-28T07:02:02.534Z,2.15
2022-07-28T07:07:11.938Z,2.25
2022-07-28T07:12:19.821Z,2.15
2022-07-28T07:17:23.155Z,2.28
2022-07-28T07:22:26.212Z,2.35
2022-07-28T07:27:29.379Z,1.80
2022-07-28T07:32:32.427Z,1.80
2022-07-28T07:37:35.767Z,2.03
2022-07-28T07:42:39.404Z,1.90
2022-07-28T07:47:42.616Z,2.10
2022-07-28T07:52:45.927Z,1.90
2022-07-28T07:57:49.398Z,1.45
2022-07-28T08:02:52.393Z,1.55
2022-07-28T08:07:54.846Z,1.60
2022-07-28T08:12:57.526Z,1.70
2022-07-28T08:18:00.940Z,1.70
2022-07-28T08:23:03.834Z,1.63
2022-07-28T08:28:06.619Z,1.45
2022-07-28T08:33:09.797Z,1.45
2022-07-28T08:38:12.904Z,1.45
2022-07-28T08:43:36.211Z,1.67
2022-07-28T08:48:39.778Z,2.85
2022-07-28T08:53:43.153Z,1.75
2022-07-28T08:58:45.719Z,1.73
2022-07-28T09:03:50.176Z,1.63
2022-07-28T09:08:53.477Z,1.15
2022-07-28T09:13:56.350Z,1.35
2022-07-28T09:18:59.019Z,0.82
2022-07-28T09:24:03.799Z,1.63
2022-07-28T09:29:08.811Z,1.40
2022-07-28T09:34:12.357Z,1.02
2022-07-28T09:39:30.592Z,1.48
2022-07-28T09:49:43.614Z,1.80
2022-07-28T09:55:10.092Z,1.52
2022-07-28T10:00:27.942Z,1.40
2022-07-28T10:05:41.587Z,1.10
2022-07-28T10:10:59.329Z,1.02
2022-07-28T10:16:11.725Z,1.30
2022-07-28T10:21:17.127Z,1.50
2022-07-28T10:26:22.991Z,1.13
2022-07-28T10:31:39.334Z,1.75
2022-07-28T10:36:42.943Z,1.00
2022-07-28T10:41:45.916Z,1.00
2022-07-28T10:46:48.701Z,0.93
2022-07-28T10:52:04.971Z,1.27
2022-07-28T10:57:12.926Z,0.60
2022-07-28T11:02:57.810Z,0.90
2022-07-28T11:08:04.671Z,0.93
2022-07-28T11:13:07.478Z,1.35
2022-07-28T11:18:16.924Z,1.40
2022-07-28T11:23:55.900Z,1.00
2022-07-28T11:29:04.577Z,1.00
2022-07-28T11:34:09.309Z,1.10
2022-07-28T11:39:24.718Z,1.23
2022-07-28T11:44:32.130Z,0.90
2022-07-28T11:54:38.999Z,1.05
2022-07-28T11:59:43.928Z,1.00
2022-07-28T12:05:01.046Z,1.05
2022-07-28T12:10:44.449Z,0.70
2022-07-28T12:15:51.928Z,0.82
2022-07-28T12:20:55.623Z,0.80
2022-07-28T12:25:58.562Z,0.85
2022-07-28T12:31:13.636Z,1.00
2022-07-28T12:36:19.538Z,1.15
2022-07-28T12:41:25.892Z,1.70
2022-07-28T12:46:30.822Z,0.82
2022-07-28T12:51:42.058Z,0.90
2022-07-28T12:56:49.486Z,0.90
2022-07-28T13:01:59.351Z,0.82
2022-07-28T13:07:02.011Z,0.80
2022-07-28T13:12:15.560Z,1.02
2022-07-28T13:17:22.162Z,1.73
2022-07-28T13:22:34.582Z,1.80
2022-07-28T13:27:38.261Z,0.73
2022-07-28T13:32:43.570Z,0.80
2022-07-28T13:37:46.182Z,0.68
2022-07-28T13:42:53.187Z,0.57
2022-07-28T13:48:02.917Z,0.73
2022-07-28T13:53:06.037Z,0.65
2022-07-28T13:58:09.177Z,0.70
2022-07-28T14:03:13.051Z,0.70
2022-07-28T14:08:19.638Z,0.88
2022-07-28T14:13:22.533Z,0.73
2022-07-28T14:18:31.142Z,0.90
2022-07-28T14:23:34.038Z,0.93
2022-07-28T14:28:37.207Z,0.50
2022-07-28T14:33:45.579Z,0.68
2022-07-28T14:38:53.646Z,0.70
2022-07-28T14:43:58.404Z,0.60
2022-07-28T14:49:01.276Z,0.90
2022-07-28T14:54:04.618Z,0.60
2022-07-28T14:59:07.324Z,1.13
2022-07-28T15:04:12.770Z,0.57
2022-07-28T15:09:15.753Z,0.88
2022-07-28T15:14:20.974Z,0.60
2022-07-28T15:19:25.387Z,0.60
2022-07-28T15:24:30.815Z,0.57
2022-07-28T15:29:35.689Z,0.80
2022-07-28T15:34:38.395Z,0.80
2022-07-28T15:39:45.043Z,0.75
2022-07-28T15:44:49.743Z,0.70
2022-07-28T15:49:52.284Z,0.68
2022-07-28T15:54:56.692Z,0.70
2022-07-28T15:59:59.751Z,1.92
2022-07-28T16:05:02.440Z,4.07
2022-07-28T16:10:05.316Z,0.80
2022-07-28T16:15:08.544Z,1.10
2022-07-28T16:20:11.950Z,1.33
2022-07-28T16:25:19.983Z,2.78
2022-07-28T16:30:22.669Z,1.40
2022-07-28T16:35:25.676Z,1.38
2022-07-28T16:40:30.420Z,1.27
2022-07-28T16:45:35.865Z,1.67
2022-07-28T16:50:40.030Z,1.38
2022-07-28T16:55:43.228Z,1.80
2022-07-28T17:00:45.908Z,1.60
2022-07-28T17:05:49.058Z,1.80
2022-07-28T17:10:51.483Z,2.75
2022-07-28T17:15:55.122Z,3.90
2022-07-28T17:21:00.406Z,1.58
2022-07-28T17:31:33.531Z,1.70
2022-07-28T17:36:38.455Z,1.67
2022-07-28T17:41:44.136Z,1.60
2022-07-28T17:46:47.949Z,1.50
2022-07-28T17:51:50.756Z,1.38
2022-07-28T17:56:54.337Z,1.10
2022-07-28T18:01:58.446Z,1.17
2022-07-28T18:07:01.048Z,1.38
2022-07-28T18:12:05.478Z,1.55
2022-07-28T18:17:08.010Z,1.63
2022-07-28T18:22:10.397Z,1.48
2022-07-28T18:27:13.623Z,1.77
2022-07-28T18:32:20.078Z,1.98
2022-07-28T18:37:22.816Z,2.38
2022-07-28T18:42:25.520Z,3.72
2022-07-28T18:47:29.474Z,2.03
2022-07-28T18:52:33.946Z,1.90
2022-07-28T18:57:36.771Z,1.90
2022-07-28T19:02:39.584Z,3.03
2022-07-28T19:07:42.933Z,2.30
2022-07-28T19:12:46.796Z,3.28
2022-07-28T19:18:10.431Z,1.90
2022-07-28T19:23:12.913Z,3.20
2022-07-28T19:28:16.720Z,2.25
2022-07-28T19:33:21.501Z,2.28
2022-07-28T19:38:25.381Z,2.15
2022-07-28T19:43:28.350Z,2.40
2022-07-28T19:48:31.268Z,2.17
2022-07-28T19:53:35.851Z,2.00
2022-07-28T19:58:40.680Z,1.90
2022-07-28T20:04:01.249Z,3.03
2022-07-28T20:09:06.894Z,3.67
2022-07-28T20:14:09.989Z,2.75
2022-07-28T20:19:12.989Z,3.00
2022-07-28T20:24:16.043Z,2.05
2022-07-28T20:29:18.981Z,3.20
2022-07-28T20:34:23.272Z,3.00
2022-07-28T20:39:44.375Z,3.85
2022-07-28T20:44:47.499Z,4.75
2022-07-28T20:49:50.267Z,3.95
2022-07-28T20:54:54.794Z,3.22
2022-07-28T20:59:57.775Z,3.15
2022-07-28T21:05:01.021Z,3.10
2022-07-28T21:10:05.368Z,3.83
2022-07-28T21:15:10.770Z,2.50
2022-07-28T21:20:14.799Z,3.08
2022-07-28T21:25:18.166Z,3.40
2022-07-28T21:30:27.644Z,3.15
2022-07-28T21:35:33.479Z,2.78
2022-07-28T21:40:38.984Z,2.95
2022-07-28T21:45:42.442Z,4.25
2022-07-28T21:50:45.269Z,3.15
2022-07-28T21:55:48.615Z,3.00
2022-07-28T22:00:51.254Z,2.92
2022-07-28T22:05:54.020Z,2.55
2022-07-28T22:11:00.476Z,2.90
2022-07-28T22:16:04.255Z,2.83
2022-07-28T22:21:07.043Z,3.28
2022-07-28T22:26:09.665Z,4.25
2022-07-28T22:31:12.268Z,3.60
2022-07-28T22:36:15.326Z,3.97
2022-07-28T22:41:17.844Z,3.65
2022-07-28T22:46:21.595Z,4.05
2022-07-28T22:51:24.233Z,3.65
2022-07-28T22:57:05.107Z,3.47
2022-07-28T23:02:26.100Z,4.30
2022-07-28T23:07:51.054Z,3.95
2022-07-28T23:12:51.458Z,4.25
2022-07-28T23:17:54.270Z,5.10
2022-07-28T23:22:56.669Z,4.18
2022-07-28T23:27:59.338Z,3.97
2022-07-28T23:33:02.480Z,3.97
2022-07-28T23:38:05.356Z,3.60
2022-07-28T23:43:07.863Z,4.15
2022-07-28T23:48:10.616Z,5.13
2022-07-28T23:53:13.557Z,4.75
2022-07-28T23:58:16.092Z,5.50
